Main page
METAR-TAF:

METAR-TAF

Airports :

Burgas Airport

Burgas, Bulgaria

latitude: 42-29N, longitude: 027-29E, elevation: 16 m

Current weather observation

The report was made 20 minutes ago, at 00:00 UTC
Wind 5 kt from the North/Northeast
Temperature 4°C
Humidity 75%
Pressure 1030 hPa
Visibility 10 km or more
Overcast at a height of 4300 ft

METAR: LBBG 160000Z 02005KT 9999 OVC043 04/00 Q1030 NOSIG

Time: 02:20 (00:20 UTC)

Forecast

The report was made 1 hour and 20 minutes ago, at 23:00 UTC
Forecast valid from 16 at 00 UTC to 16 at 24 UTC
Wind 10 kt from the North/Northwest
Visibility 10 km or more
Scattered clouds at a height of 4000 ft
Becoming
from 16 at 07 UTC to 16 at 09 UTC
Wind 12 kt from the North/Northeast
Becoming
from 16 at 16 UTC to 16 at 18 UTC
Wind 4 kt from variable directions

TAF: LBBG 152300Z 1600/1624 33010KT 9999 SCT040 BECMG 1607/1609 03012KT BECMG 1616/1618 VRB04KT

Weather observations and forecasts of more than 4000 airports (METAR and TAF reports).

The available stations are represented by yellow and red dots on the map.

Hover mouse over dot to see the name of the station.

Then click to see weather observations and forecasts.

To change the map : click on the green buttons with a black cross to zoom in, on the green button with a dash to zoom out, or on the green arrows for adjacent maps.


METAR-TAF: